sensor_id;sensor_type;location;lat;lon;timestamp;pressure;altitude;pressure_sealevel;temperature;humidity
13434;BME280;6789;47.678;9.158;2023-12-20T00:01:46;53405.47;;;-138.23;72.63
13434;BME280;6789;47.678;9.158;2023-12-20T00:06:38;53457.69;;;-138.23;72.14
13434;BME280;6789;47.678;9.158;2023-12-20T00:11:30;53415.53;;;-138.23;72.06
13434;BME280;6789;47.678;9.158;2023-12-20T00:16:22;53365.31;;;-138.23;71.89
13434;BME280;6789;47.678;9.158;2023-12-20T00:21:13;53387.41;;;-138.23;72.31
13434;BME280;6789;47.678;9.158;2023-12-20T00:26:05;53417.53;;;-138.23;71.38
13434;BME280;6789;47.678;9.158;2023-12-20T00:30:57;53409.50;;;-138.23;69.82
13434;BME280;6789;47.678;9.158;2023-12-20T00:35:49;53421.53;;;-138.23;68.46
13434;BME280;6789;47.678;9.158;2023-12-20T00:40:42;53401.47;;;-138.23;68.61
13434;BME280;6789;47.678;9.158;2023-12-20T00:45:33;53421.53;;;-138.23;68.35
13434;BME280;6789;47.678;9.158;2023-12-20T00:50:25;53389.41;;;-138.23;67.87
13434;BME280;6789;47.678;9.158;2023-12-20T00:55:20;53433.59;;;-138.23;67.44
13434;BME280;6789;47.678;9.158;2023-12-20T01:00:13;53395.44;;;-138.23;67.23
13434;BME280;6789;47.678;9.158;2023-12-20T01:05:06;53377.38;;;-138.23;65.66
13434;BME280;6789;47.678;9.158;2023-12-20T01:09:59;53417.53;;;-138.23;64.87
13434;BME280;6789;47.678;9.158;2023-12-20T01:14:51;53377.38;;;-138.23;64.02
13434;BME280;6789;47.678;9.158;2023-12-20T01:19:43;53417.53;;;-138.23;63.73
13434;BME280;6789;47.678;9.158;2023-12-20T01:24:34;53407.50;;;-138.23;63.97
13434;BME280;6789;47.678;9.158;2023-12-20T01:29:26;53405.47;;;-138.23;64.10
13434;BME280;6789;47.678;9.158;2023-12-20T01:34:18;53401.47;;;-138.23;65.18
13434;BME280;6789;47.678;9.158;2023-12-20T01:39:10;53425.56;;;-138.23;64.94
13434;BME280;6789;47.678;9.158;2023-12-20T01:44:15;53391.41;;;-138.23;65.13
13434;BME280;6789;47.678;9.158;2023-12-20T01:49:08;53415.53;;;-138.23;64.07
13434;BME280;6789;47.678;9.158;2023-12-20T01:54:00;53397.44;;;-138.23;63.16
13434;BME280;6789;47.678;9.158;2023-12-20T01:58:54;53409.50;;;-138.23;63.21
13434;BME280;6789;47.678;9.158;2023-12-20T02:03:47;53393.44;;;-138.23;61.96
13434;BME280;6789;47.678;9.158;2023-12-20T02:08:39;53419.53;;;-138.23;60.89
13434;BME280;6789;47.678;9.158;2023-12-20T02:13:31;53381.38;;;-138.23;60.81
13434;BME280;6789;47.678;9.158;2023-12-20T02:18:23;53409.50;;;-138.23;61.24
13434;BME280;6789;47.678;9.158;2023-12-20T02:23:15;53379.38;;;-138.23;61.38
13434;BME280;6789;47.678;9.158;2023-12-20T02:28:08;53385.41;;;-138.23;62.94
13434;BME280;6789;47.678;9.158;2023-12-20T02:33:00;53425.56;;;-138.23;63.81
13434;BME280;6789;47.678;9.158;2023-12-20T02:37:52;53387.41;;;-138.23;65.26
13434;BME280;6789;47.678;9.158;2023-12-20T02:42:44;53391.41;;;-138.23;66.54
13434;BME280;6789;47.678;9.158;2023-12-20T02:47:36;53385.41;;;-138.23;67.06
13434;BME280;6789;47.678;9.158;2023-12-20T02:52:29;53411.50;;;-138.23;67.26
13434;BME280;6789;47.678;9.158;2023-12-20T02:57:20;53401.47;;;-138.23;66.06
13434;BME280;6789;47.678;9.158;2023-12-20T03:02:12;53393.44;;;-138.23;65.49
13434;BME280;6789;47.678;9.158;2023-12-20T03:07:04;53403.47;;;-138.23;65.19
13434;BME280;6789;47.678;9.158;2023-12-20T03:11:56;53429.56;;;-138.23;64.95
13434;BME280;6789;47.678;9.158;2023-12-20T03:16:50;53397.44;;;-138.23;65.01
13434;BME280;6789;47.678;9.158;2023-12-20T03:21:41;53445.63;;;-138.23;65.56
13434;BME280;6789;47.678;9.158;2023-12-20T03:26:33;53375.34;;;-138.23;66.47
13434;BME280;6789;47.678;9.158;2023-12-20T03:31:25;53417.53;;;-138.23;67.77
13434;BME280;6789;47.678;9.158;2023-12-20T03:36:17;53403.47;;;-138.23;68.41
13434;BME280;6789;47.678;9.158;2023-12-20T03:41:09;53389.41;;;-138.23;69.11
13434;BME280;6789;47.678;9.158;2023-12-20T03:46:00;53411.50;;;-138.23;71.31
13434;BME280;6789;47.678;9.158;2023-12-20T03:50:52;53389.41;;;-138.23;72.96
13434;BME280;6789;47.678;9.158;2023-12-20T03:55:44;53393.44;;;-138.23;74.16
13434;BME280;6789;47.678;9.158;2023-12-20T04:00:36;53415.53;;;-138.23;77.38
13434;BME280;6789;47.678;9.158;2023-12-20T04:05:28;53385.41;;;-138.23;78.97
13434;BME280;6789;47.678;9.158;2023-12-20T04:10:20;53425.56;;;-138.23;81.27
13434;BME280;6789;47.678;9.158;2023-12-20T04:15:26;53393.44;;;-138.23;82.70
13434;BME280;6789;47.678;9.158;2023-12-20T04:20:18;53425.56;;;-138.23;82.98
13434;BME280;6789;47.678;9.158;2023-12-20T04:25:10;53393.44;;;-138.23;84.26
13434;BME280;6789;47.678;9.158;2023-12-20T04:30:02;53439.63;;;-138.23;83.97
13434;BME280;6789;47.678;9.158;2023-12-20T04:34:54;53413.50;;;-138.23;83.75
13434;BME280;6789;47.678;9.158;2023-12-20T04:39:46;53439.63;;;-138.23;85.57
13434;BME280;6789;47.678;9.158;2023-12-20T04:44:38;53387.41;;;-138.23;86.12
13434;BME280;6789;47.678;9.158;2023-12-20T04:49:30;53463.72;;;-138.23;87.89
13434;BME280;6789;47.678;9.158;2023-12-20T04:54:22;53425.56;;;-138.23;88.96
13434;BME280;6789;47.678;9.158;2023-12-20T04:59:14;53425.56;;;-138.23;88.57
13434;BME280;6789;47.678;9.158;2023-12-20T05:04:05;53439.63;;;-138.23;88.99
13434;BME280;6789;47.678;9.158;2023-12-20T05:08:57;53419.53;;;-138.23;89.35
13434;BME280;6789;47.678;9.158;2023-12-20T05:13:49;53433.59;;;-138.23;89.33
13434;BME280;6789;47.678;9.158;2023-12-20T05:18:41;53429.56;;;-138.23;89.57
13434;BME280;6789;47.678;9.158;2023-12-20T05:23:33;53409.50;;;-138.23;90.34
13434;BME280;6789;47.678;9.158;2023-12-20T05:28:25;53445.63;;;-138.23;90.24
13434;BME280;6789;47.678;9.158;2023-12-20T05:33:17;53409.50;;;-138.23;90.74
13434;BME280;6789;47.678;9.158;2023-12-20T05:38:09;53405.47;;;-138.23;91.11
13434;BME280;6789;47.678;9.158;2023-12-20T05:43:00;53461.69;;;-138.23;91.18
13434;BME280;6789;47.678;9.158;2023-12-20T05:47:52;53441.63;;;-138.23;91.18
13434;BME280;6789;47.678;9.158;2023-12-20T05:52:44;53417.53;;;-138.23;90.55
13434;BME280;6789;47.678;9.158;2023-12-20T05:57:36;53427.56;;;-138.23;90.67
13434;BME280;6789;47.678;9.158;2023-12-20T06:02:28;53409.50;;;-138.23;90.94
13434;BME280;6789;47.678;9.158;2023-12-20T06:07:19;53411.50;;;-138.23;90.05
13434;BME280;6789;47.678;9.158;2023-12-20T06:12:12;53433.59;;;-138.23;89.85
13434;BME280;6789;47.678;9.158;2023-12-20T06:17:04;53431.59;;;-138.23;89.85
13434;BME280;6789;47.678;9.158;2023-12-20T06:21:56;53397.44;;;-138.23;89.63
13434;BME280;6789;47.678;9.158;2023-12-20T06:26:47;53439.63;;;-138.23;89.42
13434;BME280;6789;47.678;9.158;2023-12-20T06:31:39;53419.53;;;-138.23;88.50
13434;BME280;6789;47.678;9.158;2023-12-20T06:36:31;53385.41;;;-138.23;89.80
13434;BME280;6789;47.678;9.158;2023-12-20T06:41:23;53461.69;;;-138.23;89.66
13434;BME280;6789;47.678;9.158;2023-12-20T06:46:16;53437.59;;;-138.23;89.16
13434;BME280;6789;47.678;9.158;2023-12-20T06:51:15;53437.59;;;-138.23;88.99
13434;BME280;6789;47.678;9.158;2023-12-20T06:56:09;53403.47;;;-138.23;88.87
13434;BME280;6789;47.678;9.158;2023-12-20T07:01:02;53429.56;;;-138.23;88.45
13434;BME280;6789;47.678;9.158;2023-12-20T07:05:53;53385.41;;;-138.23;88.80
13434;BME280;6789;47.678;9.158;2023-12-20T07:10:45;53403.47;;;-138.23;90.16
13434;BME280;6789;47.678;9.158;2023-12-20T07:15:37;53441.63;;;-138.23;89.81
13434;BME280;6789;47.678;9.158;2023-12-20T07:20:36;53411.50;;;-138.23;90.55
13434;BME280;6789;47.678;9.158;2023-12-20T07:25:28;53425.56;;;-138.23;91.54
13434;BME280;6789;47.678;9.158;2023-12-20T07:30:21;53393.44;;;-138.23;92.30
13434;BME280;6789;47.678;9.158;2023-12-20T07:35:15;53395.44;;;-138.23;92.78
13434;BME280;6789;47.678;9.158;2023-12-20T07:40:08;53391.41;;;-138.23;92.88
13434;BME280;6789;47.678;9.158;2023-12-20T07:45:00;53409.50;;;-138.23;92.12
13434;BME280;6789;47.678;9.158;2023-12-20T07:49:52;53389.41;;;-138.23;91.19
13434;BME280;6789;47.678;9.158;2023-12-20T07:54:45;53401.47;;;-138.23;90.49
13434;BME280;6789;47.678;9.158;2023-12-20T07:59:37;53397.44;;;-138.23;90.41
13434;BME280;6789;47.678;9.158;2023-12-20T08:04:29;53423.56;;;-138.23;89.76
13434;BME280;6789;47.678;9.158;2023-12-20T08:09:21;53417.53;;;-138.23;89.90
13434;BME280;6789;47.678;9.158;2023-12-20T08:14:13;53395.44;;;-138.23;88.80
13434;BME280;6789;47.678;9.158;2023-12-20T08:19:05;53397.44;;;-138.23;87.96
13434;BME280;6789;47.678;9.158;2023-12-20T08:23:57;53411.50;;;-138.23;88.48
13434;BME280;6789;47.678;9.158;2023-12-20T08:28:49;53417.53;;;-138.23;87.61
13434;BME280;6789;47.678;9.158;2023-12-20T08:33:43;53407.50;;;-138.23;87.10
13434;BME280;6789;47.678;9.158;2023-12-20T08:38:35;53381.38;;;-138.23;86.72
13434;BME280;6789;47.678;9.158;2023-12-20T08:43:26;53401.47;;;-138.23;87.08
13434;BME280;6789;47.678;9.158;2023-12-20T08:48:18;53377.38;;;-138.23;86.15
13434;BME280;6789;47.678;9.158;2023-12-20T08:53:10;53409.50;;;-138.23;85.28
13434;BME280;6789;47.678;9.158;2023-12-20T08:58:02;53389.41;;;-138.23;84.77
13434;BME280;6789;47.678;9.158;2023-12-20T09:02:54;53405.47;;;-138.23;83.73
13434;BME280;6789;47.678;9.158;2023-12-20T09:07:46;53423.56;;;-138.23;82.97
13434;BME280;6789;47.678;9.158;2023-12-20T09:12:39;53385.41;;;-138.23;81.52
13434;BME280;6789;47.678;9.158;2023-12-20T09:17:32;53401.47;;;-138.23;81.90
13434;BME280;6789;47.678;9.158;2023-12-20T09:22:24;53397.44;;;-138.23;80.63
13434;BME280;6789;47.678;9.158;2023-12-20T09:27:16;53391.41;;;-138.23;80.34
13434;BME280;6789;47.678;9.158;2023-12-20T09:32:08;53379.38;;;-138.23;79.67
13434;BME280;6789;47.678;9.158;2023-12-20T09:37:00;53361.31;;;-138.23;77.56
13434;BME280;6789;47.678;9.158;2023-12-20T09:42:02;53355.28;;;-138.23;77.49
13434;BME280;6789;47.678;9.158;2023-12-20T09:46:56;53361.31;;;-138.23;75.82
13434;BME280;6789;47.678;9.158;2023-12-20T09:51:51;53385.41;;;-138.23;75.53
13434;BME280;6789;47.678;9.158;2023-12-20T09:56:46;53363.31;;;-138.23;76.41
13434;BME280;6789;47.678;9.158;2023-12-20T10:01:40;53379.38;;;-138.23;75.77
13434;BME280;6789;47.678;9.158;2023-12-20T10:06:32;53355.28;;;-138.23;75.11
13434;BME280;6789;47.678;9.158;2023-12-20T10:11:25;53363.31;;;-138.23;74.48
13434;BME280;6789;47.678;9.158;2023-12-20T10:16:17;53387.41;;;-138.23;74.69
13434;BME280;6789;47.678;9.158;2023-12-20T10:21:09;53383.38;;;-138.23;74.79
13434;BME280;6789;47.678;9.158;2023-12-20T10:26:02;53349.25;;;-138.23;75.09
13434;BME280;6789;47.678;9.158;2023-12-20T10:30:54;53361.31;;;-138.23;73.61
13434;BME280;6789;47.678;9.158;2023-12-20T10:35:50;53369.34;;;-138.23;74.88
13434;BME280;6789;47.678;9.158;2023-12-20T10:40:45;53369.34;;;-138.23;74.70
13434;BME280;6789;47.678;9.158;2023-12-20T10:45:37;53359.28;;;-138.23;73.05
13434;BME280;6789;47.678;9.158;2023-12-20T10:50:30;53359.28;;;-138.23;72.56
13434;BME280;6789;47.678;9.158;2023-12-20T10:55:24;53333.19;;;-138.23;73.34
13434;BME280;6789;47.678;9.158;2023-12-20T11:00:18;53369.34;;;-138.23;72.53
13434;BME280;6789;47.678;9.158;2023-12-20T11:05:28;53329.16;;;-138.23;73.60
13434;BME280;6789;47.678;9.158;2023-12-20T11:15:49;53373.34;;;-138.23;73.88
13434;BME280;6789;47.678;9.158;2023-12-20T11:20:42;53329.16;;;-138.23;73.50
13434;BME280;6789;47.678;9.158;2023-12-20T11:25:53;53361.31;;;-138.23;73.00
13434;BME280;6789;47.678;9.158;2023-12-20T11:30:52;53339.22;;;-138.23;69.61
13434;BME280;6789;47.678;9.158;2023-12-20T11:35:48;53347.25;;;-138.23;67.62
13434;BME280;6789;47.678;9.158;2023-12-20T11:40:44;53337.19;;;-138.23;64.70
13434;BME280;6789;47.678;9.158;2023-12-20T11:45:36;53327.16;;;-138.23;64.23
13434;BME280;6789;47.678;9.158;2023-12-20T11:50:32;53329.16;;;-138.23;66.76
13434;BME280;6789;47.678;9.158;2023-12-20T11:55:38;53379.38;;;-138.23;67.14
13434;BME280;6789;47.678;9.158;2023-12-20T12:00:30;53357.28;;;-138.23;66.95
13434;BME280;6789;47.678;9.158;2023-12-20T12:05:21;53341.22;;;-138.23;66.64
13434;BME280;6789;47.678;9.158;2023-12-20T12:10:13;53345.22;;;-138.23;67.75
13434;BME280;6789;47.678;9.158;2023-12-20T12:15:06;53335.19;;;-138.23;66.49
13434;BME280;6789;47.678;9.158;2023-12-20T12:20:48;53313.09;;;-138.23;65.99
13434;BME280;6789;47.678;9.158;2023-12-20T12:36:12;53355.28;;;-138.23;64.74
13434;BME280;6789;47.678;9.158;2023-12-20T12:41:04;53305.06;;;-138.23;64.41
13434;BME280;6789;47.678;9.158;2023-12-20T12:45:57;53333.19;;;-138.23;64.53
13434;BME280;6789;47.678;9.158;2023-12-20T12:50:52;53359.28;;;-138.23;64.94
13434;BME280;6789;47.678;9.158;2023-12-20T12:55:44;53353.25;;;-138.23;65.03
13434;BME280;6789;47.678;9.158;2023-12-20T13:00:36;53361.31;;;-138.23;64.13
13434;BME280;6789;47.678;9.158;2023-12-20T13:05:29;53343.22;;;-138.23;63.85
13434;BME280;6789;47.678;9.158;2023-12-20T13:10:37;53341.22;;;-138.23;64.10
13434;BME280;6789;47.678;9.158;2023-12-20T13:15:29;53361.31;;;-138.23;63.88
13434;BME280;6789;47.678;9.158;2023-12-20T13:20:22;53329.16;;;-138.23;64.34
13434;BME280;6789;47.678;9.158;2023-12-20T13:25:14;53317.13;;;-138.23;62.98
13434;BME280;6789;47.678;9.158;2023-12-20T13:30:06;53333.19;;;-138.23;61.10
13434;BME280;6789;47.678;9.158;2023-12-20T13:34:59;53333.19;;;-138.23;61.08
13434;BME280;6789;47.678;9.158;2023-12-20T13:39:51;53283.00;;;-138.23;62.37
13434;BME280;6789;47.678;9.158;2023-12-20T13:44:45;53329.16;;;-138.23;64.06
13434;BME280;6789;47.678;9.158;2023-12-20T13:49:38;53347.25;;;-138.23;64.59
13434;BME280;6789;47.678;9.158;2023-12-20T13:54:30;53321.13;;;-138.23;65.16
13434;BME280;6789;47.678;9.158;2023-12-20T13:59:22;53349.25;;;-138.23;65.74
13434;BME280;6789;47.678;9.158;2023-12-20T14:04:14;53371.34;;;-138.23;65.54
13434;BME280;6789;47.678;9.158;2023-12-20T14:09:26;53365.31;;;-138.23;64.58
13434;BME280;6789;47.678;9.158;2023-12-20T14:14:18;53399.44;;;-138.23;63.28
13434;BME280;6789;47.678;9.158;2023-12-20T14:19:11;53359.28;;;-138.23;64.15
13434;BME280;6789;47.678;9.158;2023-12-20T14:24:03;53343.22;;;-138.23;63.58
13434;BME280;6789;47.678;9.158;2023-12-20T14:28:55;53375.34;;;-138.23;63.48
13434;BME280;6789;47.678;9.158;2023-12-20T14:33:47;53353.25;;;-138.23;63.78
13434;BME280;6789;47.678;9.158;2023-12-20T14:38:40;53373.34;;;-138.23;61.00
13434;BME280;6789;47.678;9.158;2023-12-20T14:49:08;53355.28;;;-138.23;58.31
13434;BME280;6789;47.678;9.158;2023-12-20T14:54:01;53371.34;;;-138.23;57.84
13434;BME280;6789;47.678;9.158;2023-12-20T14:58:53;53371.34;;;-138.23;57.19
13434;BME280;6789;47.678;9.158;2023-12-20T15:03:45;53365.31;;;-138.23;57.30
13434;BME280;6789;47.678;9.158;2023-12-20T15:08:37;53393.44;;;-138.23;56.77
13434;BME280;6789;47.678;9.158;2023-12-20T15:13:28;53357.28;;;-138.23;57.38
13434;BME280;6789;47.678;9.158;2023-12-20T15:18:21;53379.38;;;-138.23;59.86
13434;BME280;6789;47.678;9.158;2023-12-20T15:23:13;53353.25;;;-138.23;60.39
13434;BME280;6789;47.678;9.158;2023-12-20T15:28:05;53341.22;;;-138.23;64.03
13434;BME280;6789;47.678;9.158;2023-12-20T15:32:57;53353.25;;;-138.23;66.85
13434;BME280;6789;47.678;9.158;2023-12-20T15:37:49;53365.31;;;-138.23;67.45
13434;BME280;6789;47.678;9.158;2023-12-20T15:42:41;53373.34;;;-138.23;67.60
13434;BME280;6789;47.678;9.158;2023-12-20T15:47:36;53381.38;;;-138.23;68.38
13434;BME280;6789;47.678;9.158;2023-12-20T15:52:28;53365.31;;;-138.23;68.41
13434;BME280;6789;47.678;9.158;2023-12-20T15:57:20;53381.38;;;-138.23;68.93
13434;BME280;6789;47.678;9.158;2023-12-20T16:02:15;53405.47;;;-138.23;69.98
13434;BME280;6789;47.678;9.158;2023-12-20T16:07:08;53385.41;;;-138.23;71.22
13434;BME280;6789;47.678;9.158;2023-12-20T16:12:00;53407.50;;;-138.23;71.59
13434;BME280;6789;47.678;9.158;2023-12-20T16:16:52;53403.47;;;-138.23;71.77
13434;BME280;6789;47.678;9.158;2023-12-20T16:21:44;53405.47;;;-138.23;71.98
13434;BME280;6789;47.678;9.158;2023-12-20T16:26:57;53385.41;;;-138.23;71.16
13434;BME280;6789;47.678;9.158;2023-12-20T16:32:03;53417.53;;;-138.23;70.96
13434;BME280;6789;47.678;9.158;2023-12-20T16:36:55;53397.44;;;-138.23;70.73
13434;BME280;6789;47.678;9.158;2023-12-20T16:41:47;53399.44;;;-138.23;70.62
13434;BME280;6789;47.678;9.158;2023-12-20T16:46:39;53437.59;;;-138.23;70.02
13434;BME280;6789;47.678;9.158;2023-12-20T16:51:32;53409.50;;;-138.23;69.32
13434;BME280;6789;47.678;9.158;2023-12-20T16:56:25;53413.50;;;-138.23;69.85
13434;BME280;6789;47.678;9.158;2023-12-20T17:01:17;53419.53;;;-138.23;70.06
13434;BME280;6789;47.678;9.158;2023-12-20T17:06:10;53413.50;;;-138.23;70.00
13434;BME280;6789;47.678;9.158;2023-12-20T17:11:02;53389.41;;;-138.23;69.79
13434;BME280;6789;47.678;9.158;2023-12-20T17:15:54;53401.47;;;-138.23;70.36
13434;BME280;6789;47.678;9.158;2023-12-20T17:20:45;53435.59;;;-138.23;70.67
13434;BME280;6789;47.678;9.158;2023-12-20T17:25:37;53437.59;;;-138.23;70.64
13434;BME280;6789;47.678;9.158;2023-12-20T17:30:31;53425.56;;;-138.23;70.57
13434;BME280;6789;47.678;9.158;2023-12-20T17:35:23;53389.41;;;-138.23;70.33
13434;BME280;6789;47.678;9.158;2023-12-20T17:40:15;53399.44;;;-138.23;70.59
13434;BME280;6789;47.678;9.158;2023-12-20T17:45:07;53441.63;;;-138.23;70.28
13434;BME280;6789;47.678;9.158;2023-12-20T17:49:59;53437.59;;;-138.23;70.20
13434;BME280;6789;47.678;9.158;2023-12-20T17:54:51;53409.50;;;-138.23;69.76
13434;BME280;6789;47.678;9.158;2023-12-20T17:59:43;53417.53;;;-138.23;69.31
13434;BME280;6789;47.678;9.158;2023-12-20T18:04:34;53389.41;;;-138.23;69.32
13434;BME280;6789;47.678;9.158;2023-12-20T18:09:26;53401.47;;;-138.23;68.73
13434;BME280;6789;47.678;9.158;2023-12-20T18:14:18;53423.56;;;-138.23;68.26
13434;BME280;6789;47.678;9.158;2023-12-20T18:19:10;53437.59;;;-138.23;68.03
13434;BME280;6789;47.678;9.158;2023-12-20T18:24:03;53397.44;;;-138.23;67.47
13434;BME280;6789;47.678;9.158;2023-12-20T18:29:02;53397.44;;;-138.23;67.89
13434;BME280;6789;47.678;9.158;2023-12-20T18:33:54;53401.47;;;-138.23;68.19
13434;BME280;6789;47.678;9.158;2023-12-20T18:38:46;53383.38;;;-138.23;68.88
13434;BME280;6789;47.678;9.158;2023-12-20T18:43:37;53427.56;;;-138.23;67.94
13434;BME280;6789;47.678;9.158;2023-12-20T18:48:29;53409.50;;;-138.23;68.23
13434;BME280;6789;47.678;9.158;2023-12-20T18:53:21;53383.38;;;-138.23;68.29
13434;BME280;6789;47.678;9.158;2023-12-20T18:58:13;53399.44;;;-138.23;68.50
13434;BME280;6789;47.678;9.158;2023-12-20T19:03:05;53417.53;;;-138.23;68.31
13434;BME280;6789;47.678;9.158;2023-12-20T19:07:59;53421.53;;;-138.23;68.14
13434;BME280;6789;47.678;9.158;2023-12-20T19:12:50;53413.50;;;-138.23;67.71
13434;BME280;6789;47.678;9.158;2023-12-20T19:17:42;53415.53;;;-138.23;67.64
13434;BME280;6789;47.678;9.158;2023-12-20T19:22:34;53419.53;;;-138.23;67.13
13434;BME280;6789;47.678;9.158;2023-12-20T19:27:26;53417.53;;;-138.23;67.03
13434;BME280;6789;47.678;9.158;2023-12-20T19:32:18;53389.41;;;-138.23;66.93
13434;BME280;6789;47.678;9.158;2023-12-20T19:37:10;53431.59;;;-138.23;66.93
13434;BME280;6789;47.678;9.158;2023-12-20T19:42:02;53397.44;;;-138.23;65.65
13434;BME280;6789;47.678;9.158;2023-12-20T19:46:54;53383.38;;;-138.23;65.61
13434;BME280;6789;47.678;9.158;2023-12-20T19:51:45;53421.53;;;-138.23;64.64
13434;BME280;6789;47.678;9.158;2023-12-20T19:56:37;53411.50;;;-138.23;64.94
13434;BME280;6789;47.678;9.158;2023-12-20T20:01:29;53399.44;;;-138.23;65.18
13434;BME280;6789;47.678;9.158;2023-12-20T20:06:21;53421.53;;;-138.23;64.24
13434;BME280;6789;47.678;9.158;2023-12-20T20:11:13;53433.59;;;-138.23;63.77
13434;BME280;6789;47.678;9.158;2023-12-20T20:16:20;53393.44;;;-138.23;63.23
13434;BME280;6789;47.678;9.158;2023-12-20T20:21:12;53405.47;;;-138.23;62.76
13434;BME280;6789;47.678;9.158;2023-12-20T20:26:04;53395.44;;;-138.23;62.81
13434;BME280;6789;47.678;9.158;2023-12-20T20:30:56;53405.47;;;-138.23;62.91
13434;BME280;6789;47.678;9.158;2023-12-20T20:35:48;53401.47;;;-138.23;63.36
13434;BME280;6789;47.678;9.158;2023-12-20T20:40:40;53385.41;;;-138.23;63.77
13434;BME280;6789;47.678;9.158;2023-12-20T20:45:32;53415.53;;;-138.23;63.12
13434;BME280;6789;47.678;9.158;2023-12-20T20:50:24;53385.41;;;-138.23;63.53
13434;BME280;6789;47.678;9.158;2023-12-20T20:55:16;53393.44;;;-138.23;63.21
13434;BME280;6789;47.678;9.158;2023-12-20T21:00:09;53407.50;;;-138.23;63.46
13434;BME280;6789;47.678;9.158;2023-12-20T21:05:01;53401.47;;;-138.23;63.23
13434;BME280;6789;47.678;9.158;2023-12-20T21:09:53;53409.50;;;-138.23;63.41
13434;BME280;6789;47.678;9.158;2023-12-20T21:14:46;53377.38;;;-138.23;63.95
13434;BME280;6789;47.678;9.158;2023-12-20T21:19:38;53385.41;;;-138.23;63.81
13434;BME280;6789;47.678;9.158;2023-12-20T21:24:29;53389.41;;;-138.23;63.11
13434;BME280;6789;47.678;9.158;2023-12-20T21:29:21;53421.53;;;-138.23;63.23
13434;BME280;6789;47.678;9.158;2023-12-20T21:34:13;53401.47;;;-138.23;63.03
13434;BME280;6789;47.678;9.158;2023-12-20T21:39:05;53405.47;;;-138.23;62.64
13434;BME280;6789;47.678;9.158;2023-12-20T21:43:59;53381.38;;;-138.23;62.27
13434;BME280;6789;47.678;9.158;2023-12-20T21:48:52;53419.53;;;-138.23;62.29
13434;BME280;6789;47.678;9.158;2023-12-20T21:53:43;53393.44;;;-138.23;61.95
13434;BME280;6789;47.678;9.158;2023-12-20T21:58:39;53393.44;;;-138.23;62.76
13434;BME280;6789;47.678;9.158;2023-12-20T22:03:33;53425.56;;;-138.23;63.11
13434;BME280;6789;47.678;9.158;2023-12-20T22:08:27;53409.50;;;-138.23;62.71
13434;BME280;6789;47.678;9.158;2023-12-20T22:13:19;53405.47;;;-138.23;62.94
13434;BME280;6789;47.678;9.158;2023-12-20T22:18:11;53389.41;;;-138.23;63.08
13434;BME280;6789;47.678;9.158;2023-12-20T22:23:03;53445.63;;;-138.23;63.68
13434;BME280;6789;47.678;9.158;2023-12-20T22:27:54;53413.50;;;-138.23;63.44
13434;BME280;6789;47.678;9.158;2023-12-20T22:32:46;53421.53;;;-138.23;62.99
13434;BME280;6789;47.678;9.158;2023-12-20T22:37:38;53393.44;;;-138.23;63.71
13434;BME280;6789;47.678;9.158;2023-12-20T22:42:30;53403.47;;;-138.23;63.60
13434;BME280;6789;47.678;9.158;2023-12-20T22:47:22;53401.47;;;-138.23;62.96
13434;BME280;6789;47.678;9.158;2023-12-20T22:52:15;53371.34;;;-138.23;62.96
13434;BME280;6789;47.678;9.158;2023-12-20T22:57:07;53389.41;;;-138.23;63.63
13434;BME280;6789;47.678;9.158;2023-12-20T23:02:00;53383.38;;;-138.23;62.99
13434;BME280;6789;47.678;9.158;2023-12-20T23:07:06;53415.53;;;-138.23;63.75
13434;BME280;6789;47.678;9.158;2023-12-20T23:12:12;53379.38;;;-138.23;63.75
13434;BME280;6789;47.678;9.158;2023-12-20T23:17:18;53409.50;;;-138.23;63.36
13434;BME280;6789;47.678;9.158;2023-12-20T23:22:10;53403.47;;;-138.23;63.53
13434;BME280;6789;47.678;9.158;2023-12-20T23:27:02;53397.44;;;-138.23;63.16
13434;BME280;6789;47.678;9.158;2023-12-20T23:31:54;53401.47;;;-138.23;63.67
13434;BME280;6789;47.678;9.158;2023-12-20T23:36:46;53405.47;;;-138.23;63.90
13434;BME280;6789;47.678;9.158;2023-12-20T23:41:38;53421.53;;;-138.23;63.41
13434;BME280;6789;47.678;9.158;2023-12-20T23:46:29;53415.53;;;-138.23;63.01
13434;BME280;6789;47.678;9.158;2023-12-20T23:51:21;53395.44;;;-138.23;63.09
13434;BME280;6789;47.678;9.158;2023-12-20T23:56:13;53389.41;;;-138.23;62.66
